sensor_id;sensor_type;location;lat;lon;timestamp;P1;durP1;ratioP1;P2;durP2;ratioP2
47860;SDS011;33620;52.340;5.984;2022-11-04T00:00:09;5.88;;;2.85;;
47860;SDS011;33620;52.340;5.984;2022-11-04T00:02:35;7.95;;;2.78;;
47860;SDS011;33620;52.340;5.984;2022-11-04T00:05:01;4.20;;;2.30;;
47860;SDS011;33620;52.340;5.984;2022-11-04T00:07:26;7.22;;;2.75;;
47860;SDS011;33620;52.340;5.984;2022-11-04T00:10:10;5.38;;;3.03;;
47860;SDS011;33620;52.340;5.984;2022-11-04T00:12:35;7.82;;;3.38;;
47860;SDS011;33620;52.340;5.984;2022-11-04T00:15:01;8.35;;;3.33;;
47860;SDS011;33620;52.340;5.984;2022-11-04T00:17:46;10.85;;;3.38;;
47860;SDS011;33620;52.340;5.984;2022-11-04T00:20:11;7.50;;;3.13;;
47860;SDS011;33620;52.340;5.984;2022-11-04T00:22:55;11.00;;;3.40;;
47860;SDS011;33620;52.340;5.984;2022-11-04T00:25:39;9.88;;;3.70;;
47860;SDS011;33620;52.340;5.984;2022-11-04T00:28:23;9.60;;;3.80;;
47860;SDS011;33620;52.340;5.984;2022-11-04T00:31:07;10.10;;;4.05;;
47860;SDS011;33620;52.340;5.984;2022-11-04T00:33:52;11.57;;;4.53;;
47860;SDS011;33620;52.340;5.984;2022-11-04T00:36:19;8.60;;;4.10;;
47860;SDS011;33620;52.340;5.984;2022-11-04T00:38:46;9.45;;;4.60;;
47860;SDS011;33620;52.340;5.984;2022-11-04T00:41:12;10.20;;;4.00;;
47860;SDS011;33620;52.340;5.984;2022-11-04T00:43:56;9.07;;;3.70;;
47860;SDS011;33620;52.340;5.984;2022-11-04T00:46:27;11.18;;;4.68;;
47860;SDS011;33620;52.340;5.984;2022-11-04T00:48:53;9.85;;;4.25;;
47860;SDS011;33620;52.340;5.984;2022-11-04T00:51:19;12.57;;;4.57;;
47860;SDS011;33620;52.340;5.984;2022-11-04T00:53:45;11.05;;;4.63;;
47860;SDS011;33620;52.340;5.984;2022-11-04T00:56:11;12.23;;;5.22;;
47860;SDS011;33620;52.340;5.984;2022-11-04T00:58:36;11.68;;;5.55;;
47860;SDS011;33620;52.340;5.984;2022-11-04T01:01:08;15.52;;;5.88;;
47860;SDS011;33620;52.340;5.984;2022-11-04T01:03:34;16.98;;;6.57;;
47860;SDS011;33620;52.340;5.984;2022-11-04T01:06:00;16.58;;;6.90;;
47860;SDS011;33620;52.340;5.984;2022-11-04T01:08:25;14.30;;;6.93;;
47860;SDS011;33620;52.340;5.984;2022-11-04T01:10:51;18.20;;;8.00;;
47860;SDS011;33620;52.340;5.984;2022-11-04T01:13:16;18.67;;;8.43;;
47860;SDS011;33620;52.340;5.984;2022-11-04T01:15:42;15.90;;;7.65;;
47860;SDS011;33620;52.340;5.984;2022-11-04T01:18:07;17.48;;;8.52;;
47860;SDS011;33620;52.340;5.984;2022-11-04T01:20:32;17.58;;;8.55;;
47860;SDS011;33620;52.340;5.984;2022-11-04T01:22:58;20.15;;;9.32;;
47860;SDS011;33620;52.340;5.984;2022-11-04T01:25:23;22.92;;;10.30;;
47860;SDS011;33620;52.340;5.984;2022-11-04T01:27:49;20.00;;;9.32;;
47860;SDS011;33620;52.340;5.984;2022-11-04T01:30:14;19.60;;;9.18;;
47860;SDS011;33620;52.340;5.984;2022-11-04T01:32:39;20.20;;;8.48;;
47860;SDS011;33620;52.340;5.984;2022-11-04T01:35:05;11.45;;;6.05;;
47860;SDS011;33620;52.340;5.984;2022-11-04T01:37:31;11.75;;;6.15;;
47860;SDS011;33620;52.340;5.984;2022-11-04T01:39:56;10.57;;;5.13;;
47860;SDS011;33620;52.340;5.984;2022-11-04T01:42:22;11.10;;;5.55;;
47860;SDS011;33620;52.340;5.984;2022-11-04T01:44:48;10.35;;;5.75;;
47860;SDS011;33620;52.340;5.984;2022-11-04T01:47:35;12.43;;;5.50;;
47860;SDS011;33620;52.340;5.984;2022-11-04T01:52:36;9.98;;;5.35;;
47860;SDS011;33620;52.340;5.984;2022-11-04T01:57:39;11.40;;;5.20;;
47860;SDS011;33620;52.340;5.984;2022-11-04T02:00:07;11.40;;;6.45;;
47860;SDS011;33620;52.340;5.984;2022-11-04T02:02:36;14.95;;;6.18;;
47860;SDS011;33620;52.340;5.984;2022-11-04T02:05:23;13.43;;;6.90;;
47860;SDS011;33620;52.340;5.984;2022-11-04T02:07:49;13.80;;;6.45;;
47860;SDS011;33620;52.340;5.984;2022-11-04T02:10:18;13.05;;;5.72;;
47860;SDS011;33620;52.340;5.984;2022-11-04T02:12:46;10.25;;;4.65;;
47860;SDS011;33620;52.340;5.984;2022-11-04T02:15:26;8.07;;;3.70;;
47860;SDS011;33620;52.340;5.984;2022-11-04T02:34:16;8.70;;;3.33;;
47860;SDS011;33620;52.340;5.984;2022-11-04T02:37:53;8.27;;;3.53;;
47860;SDS011;33620;52.340;5.984;2022-11-04T02:40:16;7.85;;;3.83;;
47860;SDS011;33620;52.340;5.984;2022-11-04T02:48:04;14.38;;;4.88;;
47860;SDS011;33620;52.340;5.984;2022-11-04T02:51:24;9.82;;;4.32;;
47860;SDS011;33620;52.340;5.984;2022-11-04T02:53:46;6.85;;;3.33;;
47860;SDS011;33620;52.340;5.984;2022-11-04T02:56:21;6.80;;;3.50;;
47860;SDS011;33620;52.340;5.984;2022-11-04T02:58:52;12.45;;;3.72;;
47860;SDS011;33620;52.340;5.984;2022-11-04T03:01:21;6.68;;;3.13;;
47860;SDS011;33620;52.340;5.984;2022-11-04T03:03:52;6.03;;;2.72;;
47860;SDS011;33620;52.340;5.984;2022-11-04T03:06:25;5.20;;;2.60;;
47860;SDS011;33620;52.340;5.984;2022-11-04T03:08:53;5.72;;;3.13;;
47860;SDS011;33620;52.340;5.984;2022-11-04T03:11:23;12.32;;;3.90;;
47860;SDS011;33620;52.340;5.984;2022-11-04T03:13:56;12.13;;;4.75;;
47860;SDS011;33620;52.340;5.984;2022-11-04T03:19:05;14.25;;;5.07;;
47860;SDS011;33620;52.340;5.984;2022-11-04T03:21:39;15.93;;;6.25;;
47860;SDS011;33620;52.340;5.984;2022-11-04T03:24:09;16.75;;;6.68;;
47860;SDS011;33620;52.340;5.984;2022-11-04T03:31:45;12.27;;;5.68;;
47860;SDS011;33620;52.340;5.984;2022-11-04T03:34:23;16.15;;;6.50;;
47860;SDS011;33620;52.340;5.984;2022-11-04T03:36:49;10.90;;;5.45;;
47860;SDS011;33620;52.340;5.984;2022-11-04T03:39:14;11.20;;;4.50;;
47860;SDS011;33620;52.340;5.984;2022-11-04T03:41:41;12.85;;;5.60;;
47860;SDS011;33620;52.340;5.984;2022-11-04T03:44:11;10.60;;;5.60;;
47860;SDS011;33620;52.340;5.984;2022-11-04T03:46:36;11.38;;;5.25;;
47860;SDS011;33620;52.340;5.984;2022-11-04T03:49:02;10.43;;;5.38;;
47860;SDS011;33620;52.340;5.984;2022-11-04T03:51:29;11.93;;;5.85;;
47860;SDS011;33620;52.340;5.984;2022-11-04T03:53:54;12.80;;;6.22;;
47860;SDS011;33620;52.340;5.984;2022-11-04T03:56:28;12.60;;;6.30;;
47860;SDS011;33620;52.340;5.984;2022-11-04T04:04:33;12.57;;;5.75;;
47860;SDS011;33620;52.340;5.984;2022-11-04T04:07:13;13.38;;;5.88;;
47860;SDS011;33620;52.340;5.984;2022-11-04T04:09:43;9.63;;;4.85;;
47860;SDS011;33620;52.340;5.984;2022-11-04T04:12:14;11.38;;;5.03;;
47860;SDS011;33620;52.340;5.984;2022-11-04T04:14:50;9.95;;;5.20;;
47860;SDS011;33620;52.340;5.984;2022-11-04T04:19:47;12.02;;;5.00;;
47860;SDS011;33620;52.340;5.984;2022-11-04T04:22:18;8.50;;;4.88;;
47860;SDS011;33620;52.340;5.984;2022-11-04T04:24:47;9.35;;;4.78;;
47860;SDS011;33620;52.340;5.984;2022-11-04T04:27:34;9.82;;;5.30;;
47860;SDS011;33620;52.340;5.984;2022-11-04T04:30:01;11.30;;;6.03;;
47860;SDS011;33620;52.340;5.984;2022-11-04T04:32:54;15.52;;;5.93;;
47860;SDS011;33620;52.340;5.984;2022-11-04T04:35:23;11.98;;;5.88;;
47860;SDS011;33620;52.340;5.984;2022-11-04T04:38:17;14.02;;;5.88;;
47860;SDS011;33620;52.340;5.984;2022-11-04T04:41:12;17.77;;;8.48;;
47860;SDS011;33620;52.340;5.984;2022-11-04T04:44:08;20.38;;;8.00;;
47860;SDS011;33620;52.340;5.984;2022-11-04T04:46:57;17.20;;;7.20;;
47860;SDS011;33620;52.340;5.984;2022-11-04T04:49:25;15.70;;;6.80;;
47860;SDS011;33620;52.340;5.984;2022-11-04T04:51:59;17.17;;;7.90;;
47860;SDS011;33620;52.340;5.984;2022-11-04T04:54:25;17.42;;;8.23;;
47860;SDS011;33620;52.340;5.984;2022-11-04T04:56:51;15.48;;;7.82;;
47860;SDS011;33620;52.340;5.984;2022-11-04T04:59:16;16.98;;;7.00;;
47860;SDS011;33620;52.340;5.984;2022-11-04T05:01:41;15.63;;;7.80;;
47860;SDS011;33620;52.340;5.984;2022-11-04T05:04:07;15.15;;;7.43;;
47860;SDS011;33620;52.340;5.984;2022-11-04T05:06:32;13.15;;;7.45;;
47860;SDS011;33620;52.340;5.984;2022-11-04T05:08:57;17.65;;;8.82;;
47860;SDS011;33620;52.340;5.984;2022-11-04T05:11:23;17.50;;;7.75;;
47860;SDS011;33620;52.340;5.984;2022-11-04T05:13:48;15.15;;;7.53;;
47860;SDS011;33620;52.340;5.984;2022-11-04T05:16:14;16.02;;;8.20;;
47860;SDS011;33620;52.340;5.984;2022-11-04T05:18:39;23.48;;;9.75;;
47860;SDS011;33620;52.340;5.984;2022-11-04T05:21:06;18.65;;;8.65;;
47860;SDS011;33620;52.340;5.984;2022-11-04T05:23:33;22.02;;;10.55;;
47860;SDS011;33620;52.340;5.984;2022-11-04T05:25:59;20.60;;;9.95;;
47860;SDS011;33620;52.340;5.984;2022-11-04T05:28:24;24.85;;;11.02;;
47860;SDS011;33620;52.340;5.984;2022-11-04T05:30:49;23.60;;;11.00;;
47860;SDS011;33620;52.340;5.984;2022-11-04T05:33:15;21.02;;;9.57;;
47860;SDS011;33620;52.340;5.984;2022-11-04T05:35:40;26.17;;;12.20;;
47860;SDS011;33620;52.340;5.984;2022-11-04T05:38:06;24.15;;;12.50;;
47860;SDS011;33620;52.340;5.984;2022-11-04T05:40:31;29.58;;;14.65;;
47860;SDS011;33620;52.340;5.984;2022-11-04T05:42:57;32.22;;;15.55;;
47860;SDS011;33620;52.340;5.984;2022-11-04T05:45:23;33.03;;;17.45;;
47860;SDS011;33620;52.340;5.984;2022-11-04T05:47:55;36.28;;;18.60;;
47860;SDS011;33620;52.340;5.984;2022-11-04T05:50:21;39.47;;;20.17;;
47860;SDS011;33620;52.340;5.984;2022-11-04T05:52:47;43.35;;;21.40;;
47860;SDS011;33620;52.340;5.984;2022-11-04T05:55:12;47.00;;;23.05;;
47860;SDS011;33620;52.340;5.984;2022-11-04T05:57:37;46.88;;;24.63;;
47860;SDS011;33620;52.340;5.984;2022-11-04T06:00:03;53.45;;;25.23;;
47860;SDS011;33620;52.340;5.984;2022-11-04T06:02:29;45.85;;;24.48;;
47860;SDS011;33620;52.340;5.984;2022-11-04T06:04:55;59.90;;;26.88;;
47860;SDS011;33620;52.340;5.984;2022-11-04T06:07:20;58.83;;;27.85;;
47860;SDS011;33620;52.340;5.984;2022-11-04T06:09:45;57.13;;;27.95;;
47860;SDS011;33620;52.340;5.984;2022-11-04T06:12:12;60.25;;;28.27;;
47860;SDS011;33620;52.340;5.984;2022-11-04T06:14:41;57.70;;;26.55;;
47860;SDS011;33620;52.340;5.984;2022-11-04T06:17:10;60.63;;;27.05;;
47860;SDS011;33620;52.340;5.984;2022-11-04T06:19:39;59.35;;;27.85;;
47860;SDS011;33620;52.340;5.984;2022-11-04T06:22:04;55.25;;;27.23;;
47860;SDS011;33620;52.340;5.984;2022-11-04T06:24:30;59.88;;;28.70;;
47860;SDS011;33620;52.340;5.984;2022-11-04T06:26:55;56.20;;;28.50;;
47860;SDS011;33620;52.340;5.984;2022-11-04T06:29:20;53.83;;;28.20;;
47860;SDS011;33620;52.340;5.984;2022-11-04T06:31:46;61.95;;;29.60;;
47860;SDS011;33620;52.340;5.984;2022-11-04T06:34:11;57.00;;;27.27;;
47860;SDS011;33620;52.340;5.984;2022-11-04T06:36:36;62.17;;;29.67;;
47860;SDS011;33620;52.340;5.984;2022-11-04T06:39:02;53.05;;;28.58;;
47860;SDS011;33620;52.340;5.984;2022-11-04T06:41:29;58.05;;;29.02;;
47860;SDS011;33620;52.340;5.984;2022-11-04T06:43:54;55.45;;;27.67;;
47860;SDS011;33620;52.340;5.984;2022-11-04T06:46:41;49.60;;;25.23;;
47860;SDS011;33620;52.340;5.984;2022-11-04T06:49:09;47.08;;;24.85;;
47860;SDS011;33620;52.340;5.984;2022-11-04T06:51:36;50.50;;;26.85;;
47860;SDS011;33620;52.340;5.984;2022-11-04T06:54:02;43.35;;;23.45;;
47860;SDS011;33620;52.340;5.984;2022-11-04T06:56:28;44.67;;;23.35;;
47860;SDS011;33620;52.340;5.984;2022-11-04T06:58:53;42.22;;;23.63;;
47860;SDS011;33620;52.340;5.984;2022-11-04T07:01:19;45.28;;;24.75;;
47860;SDS011;33620;52.340;5.984;2022-11-04T07:03:49;45.90;;;23.98;;
47860;SDS011;33620;52.340;5.984;2022-11-04T07:06:16;43.67;;;24.73;;
47860;SDS011;33620;52.340;5.984;2022-11-04T07:08:42;45.05;;;23.75;;
47860;SDS011;33620;52.340;5.984;2022-11-04T07:11:07;53.67;;;26.35;;
47860;SDS011;33620;52.340;5.984;2022-11-04T07:13:32;40.58;;;23.30;;
47860;SDS011;33620;52.340;5.984;2022-11-04T07:15:58;51.08;;;27.75;;
47860;SDS011;33620;52.340;5.984;2022-11-04T07:18:24;52.42;;;27.98;;
47860;SDS011;33620;52.340;5.984;2022-11-04T07:20:49;50.33;;;25.77;;
47860;SDS011;33620;52.340;5.984;2022-11-04T07:23:15;40.55;;;22.13;;
47860;SDS011;33620;52.340;5.984;2022-11-04T07:25:41;45.55;;;24.02;;
47860;SDS011;33620;52.340;5.984;2022-11-04T07:28:07;44.22;;;24.17;;
47860;SDS011;33620;52.340;5.984;2022-11-04T07:30:32;48.80;;;25.13;;
47860;SDS011;33620;52.340;5.984;2022-11-04T07:32:57;41.13;;;21.13;;
47860;SDS011;33620;52.340;5.984;2022-11-04T07:35:23;35.65;;;18.90;;
47860;SDS011;33620;52.340;5.984;2022-11-04T07:37:48;38.25;;;19.65;;
47860;SDS011;33620;52.340;5.984;2022-11-04T07:40:14;41.58;;;20.33;;
47860;SDS011;33620;52.340;5.984;2022-11-04T07:42:39;43.65;;;20.73;;
47860;SDS011;33620;52.340;5.984;2022-11-04T07:45:05;34.90;;;18.60;;
47860;SDS011;33620;52.340;5.984;2022-11-04T07:47:31;38.75;;;19.63;;
47860;SDS011;33620;52.340;5.984;2022-11-04T07:49:56;31.85;;;16.35;;
47860;SDS011;33620;52.340;5.984;2022-11-04T07:52:22;31.48;;;16.05;;
47860;SDS011;33620;52.340;5.984;2022-11-04T07:54:48;34.97;;;17.63;;
47860;SDS011;33620;52.340;5.984;2022-11-04T07:57:13;33.97;;;17.33;;
47860;SDS011;33620;52.340;5.984;2022-11-04T07:59:39;36.08;;;18.80;;
47860;SDS011;33620;52.340;5.984;2022-11-04T08:02:04;36.38;;;18.35;;
47860;SDS011;33620;52.340;5.984;2022-11-04T08:04:29;34.92;;;16.75;;
47860;SDS011;33620;52.340;5.984;2022-11-04T08:06:55;38.90;;;18.05;;
47860;SDS011;33620;52.340;5.984;2022-11-04T08:09:20;30.48;;;15.40;;
47860;SDS011;33620;52.340;5.984;2022-11-04T08:11:47;34.35;;;17.73;;
47860;SDS011;33620;52.340;5.984;2022-11-04T08:14:12;32.95;;;16.60;;
47860;SDS011;33620;52.340;5.984;2022-11-04T08:16:38;34.42;;;17.80;;
47860;SDS011;33620;52.340;5.984;2022-11-04T08:19:03;34.30;;;16.42;;
47860;SDS011;33620;52.340;5.984;2022-11-04T08:21:30;39.63;;;19.05;;
47860;SDS011;33620;52.340;5.984;2022-11-04T08:23:57;39.28;;;19.10;;
47860;SDS011;33620;52.340;5.984;2022-11-04T08:26:22;36.38;;;18.20;;
47860;SDS011;33620;52.340;5.984;2022-11-04T08:28:48;33.47;;;17.55;;
47860;SDS011;33620;52.340;5.984;2022-11-04T08:31:24;38.03;;;19.83;;
47860;SDS011;33620;52.340;5.984;2022-11-04T08:33:52;40.65;;;20.48;;
47860;SDS011;33620;52.340;5.984;2022-11-04T08:36:20;40.15;;;21.75;;
47860;SDS011;33620;52.340;5.984;2022-11-04T08:38:56;42.00;;;21.63;;
47860;SDS011;33620;52.340;5.984;2022-11-04T08:41:23;40.72;;;20.13;;
47860;SDS011;33620;52.340;5.984;2022-11-04T08:43:51;42.55;;;22.05;;
47860;SDS011;33620;52.340;5.984;2022-11-04T08:46:17;43.35;;;23.77;;
47860;SDS011;33620;52.340;5.984;2022-11-04T08:48:43;52.35;;;24.65;;
47860;SDS011;33620;52.340;5.984;2022-11-04T08:51:11;44.28;;;24.60;;
47860;SDS011;33620;52.340;5.984;2022-11-04T08:53:43;45.78;;;25.50;;
47860;SDS011;33620;52.340;5.984;2022-11-04T08:56:30;46.72;;;25.35;;
47860;SDS011;33620;52.340;5.984;2022-11-04T08:58:56;45.58;;;26.63;;
47860;SDS011;33620;52.340;5.984;2022-11-04T09:01:23;41.22;;;24.00;;
47860;SDS011;33620;52.340;5.984;2022-11-04T09:03:50;44.95;;;25.85;;
47860;SDS011;33620;52.340;5.984;2022-11-04T09:06:18;49.05;;;26.60;;
47860;SDS011;33620;52.340;5.984;2022-11-04T09:08:45;47.53;;;26.65;;
47860;SDS011;33620;52.340;5.984;2022-11-04T09:11:12;47.95;;;26.35;;
47860;SDS011;33620;52.340;5.984;2022-11-04T09:13:38;46.22;;;26.70;;
47860;SDS011;33620;52.340;5.984;2022-11-04T09:16:04;49.17;;;27.05;;
47860;SDS011;33620;52.340;5.984;2022-11-04T09:18:30;49.30;;;27.17;;
47860;SDS011;33620;52.340;5.984;2022-11-04T09:20:59;50.13;;;26.48;;
47860;SDS011;33620;52.340;5.984;2022-11-04T09:23:28;41.10;;;25.20;;
47860;SDS011;33620;52.340;5.984;2022-11-04T09:25:54;48.00;;;26.08;;
47860;SDS011;33620;52.340;5.984;2022-11-04T09:28:21;50.50;;;27.45;;
47860;SDS011;33620;52.340;5.984;2022-11-04T09:30:47;47.13;;;27.55;;
47860;SDS011;33620;52.340;5.984;2022-11-04T09:33:13;50.35;;;27.15;;
47860;SDS011;33620;52.340;5.984;2022-11-04T09:35:38;45.50;;;26.73;;
47860;SDS011;33620;52.340;5.984;2022-11-04T09:38:04;46.65;;;27.75;;
47860;SDS011;33620;52.340;5.984;2022-11-04T09:40:29;45.08;;;27.52;;
47860;SDS011;33620;52.340;5.984;2022-11-04T09:45:42;46.03;;;27.17;;
47860;SDS011;33620;52.340;5.984;2022-11-04T09:48:13;51.22;;;28.73;;
47860;SDS011;33620;52.340;5.984;2022-11-04T09:50:50;49.13;;;29.60;;
47860;SDS011;33620;52.340;5.984;2022-11-04T09:53:25;51.90;;;29.73;;
47860;SDS011;33620;52.340;5.984;2022-11-04T09:55:54;47.60;;;26.63;;
47860;SDS011;33620;52.340;5.984;2022-11-04T09:58:24;48.80;;;28.60;;
47860;SDS011;33620;52.340;5.984;2022-11-04T10:01:13;50.28;;;28.73;;
47860;SDS011;33620;52.340;5.984;2022-11-04T10:04:24;46.10;;;26.83;;
47860;SDS011;33620;52.340;5.984;2022-11-04T10:20:23;46.20;;;26.90;;
47860;SDS011;33620;52.340;5.984;2022-11-04T10:28:35;46.60;;;26.98;;
47860;SDS011;33620;52.340;5.984;2022-11-04T10:31:05;43.40;;;24.88;;
47860;SDS011;33620;52.340;5.984;2022-11-04T10:33:33;43.88;;;27.00;;
47860;SDS011;33620;52.340;5.984;2022-11-04T10:36:03;43.47;;;25.98;;
47860;SDS011;33620;52.340;5.984;2022-11-04T10:41:28;39.15;;;22.45;;
47860;SDS011;33620;52.340;5.984;2022-11-04T10:44:03;40.72;;;24.25;;
47860;SDS011;33620;52.340;5.984;2022-11-04T10:52:03;35.13;;;20.98;;
47860;SDS011;33620;52.340;5.984;2022-11-04T10:54:32;40.10;;;23.50;;
47860;SDS011;33620;52.340;5.984;2022-11-04T10:57:02;37.28;;;23.50;;
47860;SDS011;33620;52.340;5.984;2022-11-04T10:59:29;42.70;;;23.77;;
47860;SDS011;33620;52.340;5.984;2022-11-04T11:01:59;39.35;;;21.05;;
47860;SDS011;33620;52.340;5.984;2022-11-04T11:07:00;35.97;;;21.00;;
47860;SDS011;33620;52.340;5.984;2022-11-04T11:09:29;38.65;;;21.88;;
47860;SDS011;33620;52.340;5.984;2022-11-04T11:12:00;37.75;;;21.55;;
47860;SDS011;33620;52.340;5.984;2022-11-04T11:20:17;34.47;;;20.52;;
47860;SDS011;33620;52.340;5.984;2022-11-04T11:22:44;38.30;;;21.27;;
47860;SDS011;33620;52.340;5.984;2022-11-04T11:28:19;36.70;;;21.42;;
47860;SDS011;33620;52.340;5.984;2022-11-04T11:36:07;32.53;;;19.42;;
47860;SDS011;33620;52.340;5.984;2022-11-04T11:38:36;30.30;;;18.30;;
47860;SDS011;33620;52.340;5.984;2022-11-04T11:41:05;37.17;;;19.25;;
47860;SDS011;33620;52.340;5.984;2022-11-04T11:43:33;32.67;;;18.08;;
47860;SDS011;33620;52.340;5.984;2022-11-04T11:46:01;33.85;;;19.20;;
47860;SDS011;33620;52.340;5.984;2022-11-04T11:51:04;33.63;;;20.38;;
47860;SDS011;33620;52.340;5.984;2022-11-04T11:53:30;33.92;;;20.80;;
47860;SDS011;33620;52.340;5.984;2022-11-04T11:56:09;31.27;;;19.60;;
47860;SDS011;33620;52.340;5.984;2022-11-04T11:58:43;36.40;;;20.75;;
47860;SDS011;33620;52.340;5.984;2022-11-04T12:01:39;34.88;;;19.35;;
47860;SDS011;33620;52.340;5.984;2022-11-04T12:04:15;32.15;;;17.10;;
47860;SDS011;33620;52.340;5.984;2022-11-04T12:12:15;30.13;;;17.02;;
47860;SDS011;33620;52.340;5.984;2022-11-04T12:27:51;23.77;;;11.35;;
47860;SDS011;33620;52.340;5.984;2022-11-04T12:30:28;20.05;;;10.45;;
47860;SDS011;33620;52.340;5.984;2022-11-04T12:33:20;22.25;;;12.05;;
47860;SDS011;33620;52.340;5.984;2022-11-04T12:35:54;20.65;;;10.27;;
47860;SDS011;33620;52.340;5.984;2022-11-04T12:55:21;23.25;;;10.95;;
47860;SDS011;33620;52.340;5.984;2022-11-04T12:58:01;24.38;;;11.20;;
47860;SDS011;33620;52.340;5.984;2022-11-04T13:00:37;24.90;;;11.32;;
47860;SDS011;33620;52.340;5.984;2022-11-04T13:05:48;22.20;;;10.43;;
47860;SDS011;33620;52.340;5.984;2022-11-04T13:08:35;19.88;;;9.40;;
47860;SDS011;33620;52.340;5.984;2022-11-04T13:11:13;21.02;;;10.45;;
47860;SDS011;33620;52.340;5.984;2022-11-04T13:14:30;22.58;;;10.55;;
47860;SDS011;33620;52.340;5.984;2022-11-04T13:16:47;19.55;;;8.75;;
47860;SDS011;33620;52.340;5.984;2022-11-04T13:19:27;22.10;;;9.35;;
47860;SDS011;33620;52.340;5.984;2022-11-04T13:21:59;18.70;;;8.90;;
47860;SDS011;33620;52.340;5.984;2022-11-04T13:24:29;22.52;;;9.05;;
47860;SDS011;33620;52.340;5.984;2022-11-04T13:26:57;19.90;;;9.07;;
47860;SDS011;33620;52.340;5.984;2022-11-04T13:29:43;22.48;;;9.23;;
47860;SDS011;33620;52.340;5.984;2022-11-04T13:34:58;20.85;;;9.63;;
47860;SDS011;33620;52.340;5.984;2022-11-04T13:37:39;23.02;;;10.10;;
47860;SDS011;33620;52.340;5.984;2022-11-04T13:40:15;20.10;;;9.40;;
47860;SDS011;33620;52.340;5.984;2022-11-04T13:45:51;21.30;;;9.07;;
47860;SDS011;33620;52.340;5.984;2022-11-04T13:48:21;21.38;;;9.65;;
47860;SDS011;33620;52.340;5.984;2022-11-04T13:50:59;21.90;;;8.88;;
47860;SDS011;33620;52.340;5.984;2022-11-04T13:56:30;19.73;;;8.10;;
47860;SDS011;33620;52.340;5.984;2022-11-04T14:01:43;16.15;;;7.78;;
47860;SDS011;33620;52.340;5.984;2022-11-04T14:14:38;21.13;;;9.25;;
47860;SDS011;33620;52.340;5.984;2022-11-04T14:30:42;9.32;;;2.90;;
47860;SDS011;33620;52.340;5.984;2022-11-04T14:35:55;11.23;;;3.50;;
47860;SDS011;33620;52.340;5.984;2022-11-04T14:38:37;12.73;;;3.08;;
47860;SDS011;33620;52.340;5.984;2022-11-04T14:43:45;8.90;;;2.80;;
47860;SDS011;33620;52.340;5.984;2022-11-04T14:46:16;10.55;;;3.10;;
47860;SDS011;33620;52.340;5.984;2022-11-04T14:48:45;14.60;;;3.88;;
47860;SDS011;33620;52.340;5.984;2022-11-04T14:51:21;8.50;;;2.47;;
47860;SDS011;33620;52.340;5.984;2022-11-04T14:53:53;15.07;;;3.55;;
47860;SDS011;33620;52.340;5.984;2022-11-04T14:56:26;12.25;;;2.30;;
47860;SDS011;33620;52.340;5.984;2022-11-04T14:58:58;10.63;;;3.33;;
47860;SDS011;33620;52.340;5.984;2022-11-04T15:01:30;5.95;;;2.20;;
47860;SDS011;33620;52.340;5.984;2022-11-04T15:04:03;12.18;;;2.97;;
47860;SDS011;33620;52.340;5.984;2022-11-04T15:06:31;11.63;;;2.80;;
47860;SDS011;33620;52.340;5.984;2022-11-04T15:08:57;8.70;;;2.65;;
47860;SDS011;33620;52.340;5.984;2022-11-04T15:11:24;8.18;;;2.45;;
47860;SDS011;33620;52.340;5.984;2022-11-04T15:14:16;8.00;;;2.10;;
47860;SDS011;33620;52.340;5.984;2022-11-04T15:16:45;7.25;;;2.20;;
47860;SDS011;33620;52.340;5.984;2022-11-04T15:19:17;8.52;;;2.60;;
47860;SDS011;33620;52.340;5.984;2022-11-04T15:22:10;9.77;;;2.50;;
47860;SDS011;33620;52.340;5.984;2022-11-04T15:24:37;4.35;;;1.98;;
47860;SDS011;33620;52.340;5.984;2022-11-04T15:27:09;9.48;;;2.47;;
47860;SDS011;33620;52.340;5.984;2022-11-04T15:29:38;8.82;;;2.30;;
47860;SDS011;33620;52.340;5.984;2022-11-04T15:32:04;9.00;;;2.22;;
47860;SDS011;33620;52.340;5.984;2022-11-04T15:34:29;11.10;;;2.88;;
47860;SDS011;33620;52.340;5.984;2022-11-04T15:36:59;13.00;;;2.58;;
47860;SDS011;33620;52.340;5.984;2022-11-04T15:42:30;12.23;;;2.97;;
47860;SDS011;33620;52.340;5.984;2022-11-04T15:53:48;15.15;;;3.45;;
47860;SDS011;33620;52.340;5.984;2022-11-04T15:56:22;7.90;;;2.90;;
47860;SDS011;33620;52.340;5.984;2022-11-04T15:58:50;8.68;;;2.97;;
47860;SDS011;33620;52.340;5.984;2022-11-04T16:01:18;10.25;;;2.95;;
47860;SDS011;33620;52.340;5.984;2022-11-04T16:03:51;15.55;;;3.60;;
47860;SDS011;33620;52.340;5.984;2022-11-04T16:06:30;10.07;;;3.22;;
47860;SDS011;33620;52.340;5.984;2022-11-04T16:09:05;8.95;;;3.15;;
47860;SDS011;33620;52.340;5.984;2022-11-04T16:12:01;11.13;;;3.50;;
47860;SDS011;33620;52.340;5.984;2022-11-04T16:14:45;11.30;;;3.75;;
47860;SDS011;33620;52.340;5.984;2022-11-04T16:17:16;12.05;;;3.58;;
47860;SDS011;33620;52.340;5.984;2022-11-04T16:19:44;14.07;;;4.05;;
47860;SDS011;33620;52.340;5.984;2022-11-04T16:22:11;14.80;;;4.00;;
47860;SDS011;33620;52.340;5.984;2022-11-04T16:24:44;8.82;;;3.25;;
47860;SDS011;33620;52.340;5.984;2022-11-04T16:27:12;10.10;;;3.53;;
47860;SDS011;33620;52.340;5.984;2022-11-04T16:29:43;11.18;;;3.85;;
47860;SDS011;33620;52.340;5.984;2022-11-04T16:32:42;15.82;;;4.07;;
47860;SDS011;33620;52.340;5.984;2022-11-04T16:35:17;12.27;;;3.92;;
47860;SDS011;33620;52.340;5.984;2022-11-04T16:37:52;15.23;;;4.32;;
47860;SDS011;33620;52.340;5.984;2022-11-04T16:40:19;15.88;;;3.90;;
47860;SDS011;33620;52.340;5.984;2022-11-04T16:42:47;12.45;;;4.10;;
47860;SDS011;33620;52.340;5.984;2022-11-04T16:45:33;11.75;;;4.18;;
47860;SDS011;33620;52.340;5.984;2022-11-04T16:48:00;12.13;;;4.32;;
47860;SDS011;33620;52.340;5.984;2022-11-04T16:50:26;12.05;;;4.63;;
47860;SDS011;33620;52.340;5.984;2022-11-04T16:52:52;9.27;;;4.70;;
47860;SDS011;33620;52.340;5.984;2022-11-04T16:55:18;12.45;;;4.10;;
47860;SDS011;33620;52.340;5.984;2022-11-04T16:57:53;13.13;;;3.67;;
47860;SDS011;33620;52.340;5.984;2022-11-04T17:00:23;8.95;;;3.30;;
47860;SDS011;33620;52.340;5.984;2022-11-04T17:02:50;15.52;;;3.25;;
47860;SDS011;33620;52.340;5.984;2022-11-04T17:05:16;13.85;;;3.20;;
47860;SDS011;33620;52.340;5.984;2022-11-04T17:07:42;11.70;;;3.70;;
47860;SDS011;33620;52.340;5.984;2022-11-04T17:12:44;13.50;;;4.00;;
47860;SDS011;33620;52.340;5.984;2022-11-04T17:15:11;12.38;;;3.55;;
47860;SDS011;33620;52.340;5.984;2022-11-04T17:17:37;12.65;;;3.53;;
47860;SDS011;33620;52.340;5.984;2022-11-04T17:20:04;12.52;;;3.28;;
47860;SDS011;33620;52.340;5.984;2022-11-04T17:22:31;10.18;;;3.10;;
47860;SDS011;33620;52.340;5.984;2022-11-04T17:24:58;16.52;;;3.92;;
47860;SDS011;33620;52.340;5.984;2022-11-04T17:27:23;12.48;;;3.63;;
47860;SDS011;33620;52.340;5.984;2022-11-04T17:29:48;11.23;;;3.15;;
47860;SDS011;33620;52.340;5.984;2022-11-04T17:32:14;8.52;;;2.88;;
47860;SDS011;33620;52.340;5.984;2022-11-04T17:34:39;11.30;;;2.75;;
47860;SDS011;33620;52.340;5.984;2022-11-04T17:37:04;11.43;;;3.10;;
47860;SDS011;33620;52.340;5.984;2022-11-04T17:39:30;13.65;;;3.30;;
47860;SDS011;33620;52.340;5.984;2022-11-04T17:41:56;10.82;;;2.88;;
47860;SDS011;33620;52.340;5.984;2022-11-04T17:44:40;7.63;;;3.17;;
47860;SDS011;33620;52.340;5.984;2022-11-04T17:47:05;11.82;;;3.75;;
47860;SDS011;33620;52.340;5.984;2022-11-04T17:49:33;8.93;;;2.92;;
47860;SDS011;33620;52.340;5.984;2022-11-04T17:52:01;12.27;;;2.75;;
47860;SDS011;33620;52.340;5.984;2022-11-04T17:54:27;12.32;;;3.17;;